Bridgeport Valley, California Weather observations

Data are for 10 minute period ending at time listed.
 Day   Time   Solar   Ave.   Ave.  Ave.  Vector  Max.   Baro.   Total    
  of    of     Rad.   Air    Rel.  Wind   Wind   Wind  Press.  Precip.   
Year   Day            Temp.  Hum.  Speed  Dir.   Gust                    
2014   (PST)  Kw/m2    F      %     mph   deg.    mph    mb.     in.     
-------------------------------------------------------------------------
 295    3:30   0.00   18.8    84    1.4   235     3.1   803.7    0.00 
 295    3:40   0.00   19.6    86    2.9   205     3.8   803.7    0.00 
 295    3:50   0.00   19.3    87    2.4   240     3.6   803.7    0.00 
 295    4:00   0.00   19.3    86    2.6   264     3.7   803.7    0.00 
 295    4:10   0.00   18.7    85    3.1   224     4.2   803.7    0.00 
 295    4:20   0.00   18.4    88    1.9   250     2.9   803.7    0.00 
 295    4:30   0.00   18.0    86    1.7   242     3.5   803.8    0.00 
 295    4:40   0.00   17.5    89    0.0     0     0.0   803.9    0.00 
 295    4:50   0.00   18.1    89    0.7    98     2.9   804.0    0.00 
 295    5:00   0.00   19.0    90    1.4   160     2.2   804.0    0.00 
 295    5:10   0.00   19.7    90    1.7   239     2.6   804.0    0.00 
 295    5:20   0.00   20.5    88    1.6   246     2.1   804.1    0.00 
 295    5:30   0.00   20.8    85    0.9   262     2.2   804.1    0.00 
 295    5:40   0.00   20.2    85    2.3   255     4.5   804.0    0.00 
 295    5:50   0.00   20.6    85    2.6   278     3.4   804.1    0.00 
 295    6:00   0.00   21.2    84    1.0   272     2.8   804.1    0.00 
 295    6:10   0.01   21.1    83    1.2   195     2.5   804.1    0.00 
 295    6:20   0.01   20.8    85    2.2   176     3.4   804.2    0.00 
 295    6:30   0.02   20.6    88    2.4   193     3.1   804.2    0.00 
 295    6:40   0.03   21.2    88    0.3   183     2.0   804.3    0.00 
 295    6:50   0.05   22.6    87    1.4   268     2.9   804.3    0.00 
 295    7:00   0.08   24.4    83    2.0   256     3.0   804.4    0.00 
 295    7:10   0.12   26.2    80    1.1   240     2.3   804.3    0.00 
 295    7:20   0.15   28.7    74    0.5   298     2.3   804.4    0.00 
 295    7:30   0.17   31.1    70    0.1   325     1.0   804.4    0.00 
 295    7:40   0.18   33.8    63    0.1     9     0.8   804.4    0.00 
 295    7:50   0.20   34.5    61    0.0   358     0.8   804.4    0.00 
 295    8:00   0.18   35.2    59    1.1   196     2.9   804.4    0.00 
 295    8:10   0.16   35.8    58    0.8   201     2.3   804.4    0.00 
 295    8:20   0.17   35.8    58    1.2   225     2.6   804.4    0.00 
 295    8:30   0.24   37.9    52    0.3   154     1.2   804.4    0.00 
 295    8:40   0.28   39.9    48    0.3   259     1.7   804.4    0.00 
 295    8:50   0.33   41.4    44    0.6   302     1.9   804.4    0.00 
 295    9:00   0.44   43.3    42    0.8   192     2.2   804.5    0.00 
 295    9:10   0.46   46.4    38    0.4   110     1.8   804.6    0.00 
 295    9:20   0.43   46.8    39    1.0   269     2.6   804.6    0.00 
 295    9:30   0.45   47.4    38    1.4   300     2.9   804.7    0.00 
 295    9:40   0.56   48.0    37    1.6   312     3.9   804.7    0.00 
 295    9:50   0.57   49.0    36    1.7   313     4.3   804.7    0.00 
 295   10:00   0.55   51.1    33    1.0   305     3.1   804.5    0.00 
 295   10:10   0.53   52.3    33    1.6   347     3.4   804.5    0.00 
 295   10:20   0.59   53.1    32    2.1   183     4.2   804.4    0.00 
 295   10:30   0.67   54.6    32    2.0   320     3.9   804.3    0.00 
 295   10:40   0.67   55.5    31    2.0   285     4.3   804.2    0.00 
 295   10:50   0.69   57.4    30    1.7    92     4.2   804.2    0.00 
 295   11:00   0.69   58.9    28    1.5   134     3.1   804.1    0.00 
 295   11:10   0.69   60.6    27    1.8   166     3.8   803.9    0.00 
 295   11:20   0.69   61.1    26    1.6   273     4.2   803.7    0.00 
 295   11:30   0.71   62.2    25    1.5   319     3.9   803.6    0.00 
 295   11:40   0.72   63.3    25    1.5   346     4.5   803.4    0.00 
 295   11:50   0.72   64.8    24    1.6     6     4.1   803.2    0.00 
 295   12:00   0.72   64.8    24    2.5   341     4.6   802.9    0.00 
 295   12:10   0.72   66.8    22    2.5    54     5.3   802.7    0.00 
 295   12:20   0.71   68.3    21    2.5    14     5.5   802.5    0.00 
 295   12:30   0.71   69.0    19    2.1    50     5.6   802.4    0.00 
 295   12:40   0.70   69.8    16    2.7    19     5.4   802.2    0.00 
 295   12:50   0.68   70.8    16    2.1    13     4.2   802.1    0.00 
 295   13:00   0.61   72.6    15    3.3   211     7.7   801.9    0.00 
 295   13:10   0.61   72.3    14    8.2   203    20.0   801.8    0.00 
 295   13:20   0.63   72.3    14   12.9   225    21.5   801.7    0.00 
 295   13:30   0.57   72.2    14   14.1   224    21.4   801.7    0.00 
 295   13:40   0.49   71.5    14   13.3   234    20.5   801.7    0.00 
 295   13:50   0.58   71.6    14   15.2   218    20.6   801.7    0.00 
 295   14:00   0.56   71.7    14   14.5   219    22.1   801.8    0.00 
 295   14:10   0.49   71.3    14   14.2   220    24.4   801.9    0.00 
 295   14:20   0.54   71.0    15   13.5   219    24.8   802.0    0.00 
 295   14:30   0.55   71.3    14   15.1   221    20.2   802.0    0.00 
 295   14:40   0.49   71.1    15   14.3   220    23.5   802.0    0.00 
 295   14:50   0.37   70.2    15   13.5   220    19.8   802.0    0.00 
 295   15:00   0.35   69.3    15   13.8   224    19.0   802.0    0.00 
 295   15:10   0.35   69.3    15   14.2   227    22.6   802.1    0.00 
 295   15:20   0.25   68.5    16   12.2   224    17.1   802.2    0.00 
 295   15:30   0.24   67.7    17   11.7   221    16.7   802.3    0.00 
 295   15:40   0.24   68.0    17   10.5   218    15.3   802.3    0.00 
 295   15:50   0.18   66.9    17   11.5   229    17.0   802.3    0.00 
 295   16:00   0.15   66.1    18   10.1   236    14.3   802.4    0.00 
 295   16:10   0.08   64.8    18    9.1   239    14.9   802.5    0.00 
 295   16:20   0.07   62.1    21    8.0   243    10.0   802.5    0.00 
 295   16:30   0.06   61.4    20    8.7   247    13.0   802.5    0.00 
 295   16:40   0.03   60.2    21    8.1   252    10.6   802.6    0.00 
 295   16:50   0.01   57.1    23    7.1   261     8.3   802.7    0.00 
 295   17:00   0.01   55.5    24    7.3   260     9.0   802.8    0.00 
 295   17:10   0.01   53.6    25    6.5   257     7.9   802.8    0.00 
 295   17:20   0.00   51.3    27    5.2   259     6.6   802.9    0.00 
 295   17:30   0.00   48.3    31    2.6   180     4.7   803.1    0.00 
 295   17:40   0.00   47.9    32    0.6   170     2.9   803.3    0.00 
 295   17:50   0.00   48.5    30    1.8   134     3.3   803.3    0.00 
 295   18:00   0.00   47.0    32    1.3   104     2.3   803.3    0.00 
 295   18:10   0.00   45.9    33    0.5   318     2.9   803.5    0.00 
 295   18:20   0.00   46.6    32    0.3   307     2.3   803.5    0.00 
 295   18:30   0.00   47.8    30    0.0     0     0.0   803.4    0.00 
 295   18:40   0.00   45.8    34    1.0   148     2.9   803.4    0.00 
 295   18:50   0.00   44.8    36    1.6   302     4.1   803.4    0.00 
 295   19:00   0.00   48.0    31    1.5   304     3.1   803.4    0.00 
 295   19:10   0.00   44.9    35    1.0   207     5.3   803.5    0.00 
 295   19:20   0.00   44.0    37    1.6   223     4.5   803.4    0.00 
 295   19:30   0.00   43.0    38    1.8   248     2.9   803.4    0.00 
 295   19:40   0.00   39.7    43    4.1   278     7.4   803.4    0.00 
 295   19:50   0.00   44.1    38    6.7   287     8.6   803.5    0.00 
 295   20:00   0.00   46.2    35    3.5   280     5.3   803.5    0.00 
 295   20:10   0.00   47.5    33    5.6   276     7.2   803.6    0.00 
 295   20:20   0.00   46.7    35    3.1   223     5.9   803.7    0.00 
 295   20:30   0.00   43.7    40    1.9   276     4.5   803.9    0.00 
 295   20:40   0.00   41.6    47    3.3   343     5.2   804.0    0.00 
 295   20:50   0.00   44.4    39    1.6   326     3.7   804.3    0.00 
 295   21:00   0.00   44.4    39    2.8    70     3.7   804.3    0.00 
 295   21:10   0.00   44.0    41    1.5    32     3.2   804.2    0.00 
 295   21:20   0.00   43.2    39    1.0   327     4.0   804.1    0.00 
 295   21:30   0.00   40.9    44    1.3   192     3.5   804.1    0.00 
 295   21:40   0.00   43.7    36    1.7   299     2.7   804.1    0.00 
 295   21:50   0.00   43.5    33    3.9   292     6.4   804.0    0.00 
 295   22:00   0.00   43.3    33    5.7   268     8.3   804.0    0.00 
 295   22:10   0.00   45.5    29    6.3   267     8.4   804.0    0.00 
 295   22:20   0.00   44.7    30    3.6   166     6.3   803.9    0.00 
 295   22:30   0.00   50.3    23    1.7   188     5.7   804.0    0.00 
 295   22:40   0.00   49.3    24    3.5   123     6.4   803.9    0.00 
 295   22:50   0.00   43.2    32    2.8   295     4.5   803.9    0.00 
 295   23:00   0.00   44.7    28    1.4   281     5.2   803.9    0.00 
 295   23:10   0.00   44.4    29    1.5    17     4.0   803.9    0.00 
 295   23:20   0.00   41.6    33    2.6     2     5.5   803.9    0.00 
 295   23:30   0.00   41.6    33    3.6    14     5.6   803.9    0.00 
 295   23:40   0.00   40.1    34    1.7    77     4.0   803.9    0.00 
 295   23:50   0.00   40.3    33    3.5   325     6.6   803.9    0.00 
 296    0:00   0.00   40.7    33    3.4   360     4.5   803.9    0.00 
 296    0:10   0.00   40.3    34    2.5   307     7.7   803.9    0.00 
 296    0:20   0.00   34.5    44    1.9   274     6.9   803.8    0.00 
 296    0:30   0.00   32.5    48    3.8   234     6.7   803.6    0.00 
 296    0:40   0.00   32.1    49    2.8   266     4.6   803.6    0.00 
 296    0:50   0.00   32.7    46    2.0   301     4.5   803.5    0.00 
 296    1:00   0.00   33.0    47    2.3    65     5.8   803.6    0.00 
 296    1:10   0.00   29.6    56    1.6    55     4.8   803.6    0.00 
 296    1:20   0.00   33.9    45    1.4   344     4.7   803.4    0.00 
 296    1:30   0.00   32.5    48    3.7   291     7.1   803.4    0.00 
 296    1:40   0.00   28.6    56    3.7   297     6.4   803.3    0.00 
 296    1:50   0.00   30.3    52    3.7   266     7.6   803.4    0.00 
 296    2:00   0.00   32.7    47    4.5   262     6.5   803.4    0.00 
 296    2:10   0.00   30.1    54    2.7   255     7.4   803.4    0.00 
 296    2:20   0.00   27.1    62    2.8    84     9.1   803.5    0.00 
 296    2:30   0.00   28.1    59    4.8   145     7.8   803.3    0.00 
 296    2:40   0.00   30.2    54    3.3   240     9.3   803.2    0.00 
 296    2:50   0.00   32.2    50    2.1   326     6.3   803.0    0.00 
 296    3:00   0.00   30.6    51    1.8   273     4.8   803.0    0.00 
 296    3:10   0.00   29.4    55    2.7   315     9.3   803.0    0.00 
 296    3:20   0.00   27.4    60    3.1    64     5.8   803.1    0.00 

Return to Bridgeport Valley graphs page.


Western Regional Climate Center,wrcc@dri.edu